createdAt,value
2019-02-07T00:00:20.110Z,9.93
2019-02-07T00:02:47.547Z,9.70
2019-02-07T00:05:14.986Z,8.83
2019-02-07T00:07:42.421Z,8.90
2019-02-07T00:10:09.943Z,8.33
2019-02-07T00:12:37.374Z,8.03
2019-02-07T00:15:04.843Z,7.87
2019-02-07T00:17:32.269Z,8.47
2019-02-07T00:19:59.679Z,8.57
2019-02-07T00:22:27.135Z,8.23
2019-02-07T00:24:54.576Z,8.53
2019-02-07T00:27:21.994Z,7.47
2019-02-07T00:29:49.410Z,8.13
2019-02-07T00:32:16.834Z,7.93
2019-02-07T00:34:44.300Z,7.57
2019-02-07T00:37:11.694Z,8.60
2019-02-07T00:39:39.095Z,7.43
2019-02-07T00:42:06.532Z,8.30
2019-02-07T00:44:33.944Z,7.77
2019-02-07T00:47:01.355Z,8.30
2019-02-07T00:49:28.775Z,8.50
2019-02-07T00:51:56.177Z,8.27
2019-02-07T00:54:23.601Z,8.27
2019-02-07T00:56:51.030Z,8.63
2019-02-07T00:59:18.461Z,8.03
2019-02-07T01:01:45.859Z,8.70
2019-02-07T01:04:13.288Z,8.43
2019-02-07T01:06:40.704Z,7.90
2019-02-07T01:09:08.134Z,7.93
2019-02-07T01:11:35.566Z,7.70
2019-02-07T01:14:02.997Z,7.63
2019-02-07T01:16:30.400Z,7.47
2019-02-07T01:18:57.846Z,8.47
2019-02-07T01:21:25.252Z,8.07
2019-02-07T01:23:52.707Z,8.00
2019-02-07T01:26:20.117Z,7.87
2019-02-07T01:28:47.529Z,7.73
2019-02-07T01:31:14.960Z,7.07
2019-02-07T01:33:42.372Z,6.60
2019-02-07T01:36:09.795Z,6.90
2019-02-07T01:38:37.209Z,7.20
2019-02-07T01:41:04.653Z,6.60
2019-02-07T01:43:32.068Z,6.80
2019-02-07T01:45:59.469Z,6.00
2019-02-07T01:48:26.892Z,5.63
2019-02-07T01:50:54.330Z,5.37
2019-02-07T01:53:21.735Z,5.70
2019-02-07T01:55:49.151Z,5.27
2019-02-07T01:58:16.577Z,6.43
2019-02-07T02:00:43.978Z,4.70
2019-02-07T02:03:11.416Z,5.07
2019-02-07T02:05:38.827Z,5.47
2019-02-07T02:08:06.240Z,5.00
2019-02-07T02:10:33.679Z,4.93
2019-02-07T02:13:01.114Z,4.43
2019-02-07T02:15:28.518Z,4.17
2019-02-07T02:17:55.950Z,4.00
2019-02-07T02:20:23.374Z,4.27
2019-02-07T02:22:50.782Z,4.10
2019-02-07T02:25:18.197Z,4.03
2019-02-07T02:27:45.618Z,3.50
2019-02-07T02:30:13.042Z,3.97
2019-02-07T02:32:40.441Z,3.87
2019-02-07T02:35:07.870Z,3.80
2019-02-07T02:37:35.278Z,3.50
2019-02-07T02:40:02.703Z,3.47
2019-02-07T02:42:30.121Z,4.00
2019-02-07T02:44:57.550Z,3.90
2019-02-07T02:47:24.943Z,3.67
2019-02-07T02:49:52.364Z,3.67
2019-02-07T02:52:19.788Z,3.43
2019-02-07T02:54:47.223Z,3.80
2019-02-07T02:57:14.628Z,3.90
2019-02-07T02:59:42.073Z,3.20
2019-02-07T03:02:27.527Z,3.80
2019-02-07T03:04:54.962Z,3.00
2019-02-07T03:07:37.547Z,3.03
2019-02-07T03:10:23.071Z,2.83
2019-02-07T03:12:53.186Z,2.40
2019-02-07T03:15:49.109Z,2.70
2019-02-07T03:18:08.918Z,2.80
2019-02-07T03:20:54.558Z,2.53
2019-02-07T03:23:27.728Z,2.60
2019-02-07T03:25:57.810Z,2.20
2019-02-07T03:28:34.121Z,2.00
2019-02-07T03:31:04.038Z,2.30
2019-02-07T03:33:37.402Z,1.90
2019-02-07T03:36:07.626Z,2.30
2019-02-07T03:38:53.114Z,1.80
2019-02-07T03:41:20.545Z,1.63
2019-02-07T03:43:50.887Z,1.80
2019-02-07T03:46:24.319Z,1.60
2019-02-07T03:48:51.727Z,1.87
2019-02-07T03:51:37.503Z,1.67
2019-02-07T03:54:04.928Z,1.80
2019-02-07T03:56:34.996Z,1.57
2019-02-07T03:59:11.821Z,1.80
2019-02-07T04:01:39.230Z,1.70
2019-02-07T04:04:21.508Z,1.40
2019-02-07T04:07:04.064Z,1.30
2019-02-07T04:09:49.464Z,1.50
2019-02-07T04:12:34.958Z,1.50
2019-02-07T04:15:02.400Z,1.40
2019-02-07T04:17:29.817Z,1.47
2019-02-07T04:20:09.617Z,1.60
2019-02-07T04:22:37.022Z,1.60
2019-02-07T04:25:04.439Z,2.17
2019-02-07T04:27:37.799Z,2.03
2019-02-07T04:30:11.043Z,2.10
2019-02-07T04:32:44.569Z,2.37
2019-02-07T04:35:11.972Z,2.53
2019-02-07T04:37:42.180Z,2.80
2019-02-07T04:40:12.783Z,8.10
2019-02-07T04:42:57.973Z,3.23
2019-02-07T04:45:25.384Z,3.47
2019-02-07T04:48:01.634Z,3.50
2019-02-07T04:50:31.583Z,3.50
2019-02-07T04:53:17.296Z,5.37
2019-02-07T04:55:56.994Z,4.23
2019-02-07T04:58:27.492Z,4.87
2019-02-07T05:01:12.985Z,4.77
2019-02-07T05:03:52.010Z,4.20
2019-02-07T05:06:28.104Z,4.90
2019-02-07T05:08:55.498Z,4.77
2019-02-07T05:11:22.890Z,4.40
2019-02-07T05:14:01.934Z,5.07
2019-02-07T05:16:47.418Z,4.70
2019-02-07T05:19:17.982Z,4.13
2019-02-07T05:21:51.125Z,5.37
2019-02-07T05:24:33.456Z,5.67
2019-02-07T05:27:19.230Z,4.73
2019-02-07T05:29:58.438Z,5.37
2019-02-07T05:32:43.943Z,4.80
2019-02-07T05:35:20.225Z,5.30
2019-02-07T05:37:53.658Z,5.37
2019-02-07T05:40:21.084Z,4.60
2019-02-07T05:42:48.520Z,4.90
2019-02-07T05:45:31.072Z,4.60
2019-02-07T05:47:58.507Z,4.93
2019-02-07T05:50:35.126Z,4.97
2019-02-07T05:53:20.787Z,4.60
2019-02-07T05:56:03.296Z,4.90
2019-02-07T05:58:36.963Z,4.43
2019-02-07T06:01:16.357Z,5.23
2019-02-07T06:04:01.815Z,5.23
2019-02-07T06:06:32.089Z,4.33
2019-02-07T06:09:05.499Z,4.13
2019-02-07T06:11:51.430Z,4.00
2019-02-07T06:14:34.217Z,4.07
2019-02-07T06:17:02.980Z,3.90
2019-02-07T06:19:34.731Z,3.63
2019-02-07T06:22:07.935Z,3.53
2019-02-07T06:24:50.676Z,3.80
2019-02-07T06:27:18.084Z,3.90
2019-02-07T06:30:01.673Z,4.30
2019-02-07T06:32:29.086Z,4.00
2019-02-07T06:35:02.456Z,4.40
2019-02-07T06:37:47.903Z,4.47
2019-02-07T06:40:15.309Z,3.10
2019-02-07T06:42:51.596Z,2.27
2019-02-07T06:45:37.130Z,1.90
2019-02-07T06:48:19.608Z,2.80
2019-02-07T06:50:47.016Z,2.93
2019-02-07T06:53:32.830Z,3.30
2019-02-07T06:56:12.489Z,3.20
2019-02-07T06:58:57.975Z,3.53
2019-02-07T07:01:31.303Z,2.83
2019-02-07T07:04:10.513Z,3.40
2019-02-07T07:06:37.923Z,3.37
2019-02-07T07:09:07.847Z,3.50
2019-02-07T07:11:53.407Z,3.27
2019-02-07T07:14:39.433Z,4.00
2019-02-07T07:17:06.868Z,3.77
2019-02-07T07:19:43.197Z,3.60
2019-02-07T07:22:16.370Z,3.90
2019-02-07T07:24:55.898Z,3.47
2019-02-07T07:27:29.133Z,4.27
2019-02-07T07:29:59.379Z,4.73
2019-02-07T07:32:35.764Z,4.23
2019-02-07T07:35:11.944Z,3.53
2019-02-07T07:37:39.368Z,4.67
2019-02-07T07:40:25.297Z,4.57
2019-02-07T07:43:10.622Z,5.77
2019-02-07T07:45:53.443Z,4.37
2019-02-07T07:48:23.532Z,5.27
2019-02-07T07:50:59.635Z,5.03
2019-02-07T07:53:29.896Z,4.73
2019-02-07T07:56:00.192Z,4.30
2019-02-07T07:58:45.776Z,5.20
2019-02-07T08:01:16.063Z,5.10
2019-02-07T08:03:52.568Z,4.70
2019-02-07T08:06:19.983Z,4.47
2019-02-07T08:08:59.161Z,3.87
2019-02-07T08:11:26.596Z,4.83
2019-02-07T08:14:08.950Z,5.87
2019-02-07T08:16:48.463Z,3.90
2019-02-07T08:19:34.079Z,4.07
2019-02-07T08:22:19.777Z,4.83
2019-02-07T08:25:05.460Z,4.20
2019-02-07T08:27:51.301Z,5.10
2019-02-07T08:30:18.728Z,5.57
2019-02-07T08:32:51.734Z,5.27
2019-02-07T08:35:19.132Z,4.10
2019-02-07T08:37:58.336Z,4.87
2019-02-07T08:40:31.326Z,5.30
2019-02-07T08:43:01.534Z,5.50
2019-02-07T08:45:29.027Z,5.27
2019-02-07T08:47:58.629Z,5.67
2019-02-07T08:50:36.171Z,5.03
2019-02-07T08:53:06.167Z,4.90
2019-02-07T08:55:45.729Z,5.53
2019-02-07T08:58:18.988Z,5.67
2019-02-07T09:00:49.322Z,4.67
2019-02-07T09:03:28.827Z,5.53
2019-02-07T09:06:01.877Z,5.60
2019-02-07T09:08:29.328Z,4.83
2019-02-07T09:11:14.850Z,4.57
2019-02-07T09:13:42.280Z,4.33
2019-02-07T09:16:09.679Z,4.37
2019-02-07T09:18:49.023Z,4.57
2019-02-07T09:21:22.366Z,5.43
2019-02-07T09:24:01.779Z,5.23
2019-02-07T09:26:35.172Z,4.60
2019-02-07T09:29:05.311Z,5.07
2019-02-07T09:31:32.753Z,4.63
2019-02-07T09:34:18.354Z,4.07
2019-02-07T09:37:04.146Z,4.77
2019-02-07T09:39:46.565Z,4.23
2019-02-07T09:42:32.252Z,4.00
2019-02-07T09:45:02.269Z,4.50
2019-02-07T09:47:48.098Z,3.40
2019-02-07T09:50:15.505Z,4.93
2019-02-07T09:52:51.945Z,4.63
2019-02-07T09:55:37.587Z,4.00
2019-02-07T09:58:13.908Z,3.50
2019-02-07T10:00:59.367Z,3.70
2019-02-07T10:03:29.627Z,3.67
2019-02-07T10:06:00.077Z,4.03
2019-02-07T10:08:39.523Z,4.10
2019-02-07T10:11:09.881Z,4.30
2019-02-07T10:13:52.180Z,3.33
2019-02-07T10:16:25.355Z,4.57
2019-02-07T10:18:55.381Z,3.23
2019-02-07T10:21:25.724Z,3.30
2019-02-07T10:23:53.164Z,3.87
2019-02-07T10:26:20.596Z,3.90
2019-02-07T10:28:48.011Z,3.37
2019-02-07T10:31:18.193Z,4.47
2019-02-07T10:33:45.607Z,3.10
2019-02-07T10:36:20.264Z,3.80
2019-02-07T10:38:45.974Z,3.63
2019-02-07T10:41:13.422Z,4.67
2019-02-07T10:43:46.875Z,3.57
2019-02-07T10:46:26.201Z,3.53
2019-02-07T10:49:05.772Z,3.30
2019-02-07T10:51:33.155Z,3.87
2019-02-07T10:54:15.371Z,4.20
2019-02-07T10:56:57.832Z,3.57
2019-02-07T10:59:43.452Z,3.57
2019-02-07T11:02:10.899Z,2.90
2019-02-07T11:04:38.317Z,3.40
2019-02-07T11:07:11.529Z,3.83
2019-02-07T11:09:38.962Z,3.50
2019-02-07T11:12:09.422Z,3.60
2019-02-07T11:14:36.834Z,3.13
2019-02-07T11:17:06.868Z,3.27
2019-02-07T11:19:34.252Z,2.97
2019-02-07T11:22:01.691Z,4.50
2019-02-07T11:24:47.288Z,3.90
2019-02-07T11:27:23.383Z,3.80
2019-02-07T11:29:50.810Z,2.77
2019-02-07T11:32:36.308Z,3.73
2019-02-07T11:35:21.650Z,3.50
2019-02-07T11:37:51.798Z,3.10
2019-02-07T11:40:25.630Z,2.63
2019-02-07T11:43:11.414Z,2.80
2019-02-07T11:45:47.823Z,3.10
2019-02-07T11:48:24.417Z,3.30
2019-02-07T11:50:55.039Z,2.73
2019-02-07T11:53:34.727Z,3.07
2019-02-07T11:56:14.438Z,2.93
2019-02-07T11:58:50.935Z,2.70
2019-02-07T12:01:36.884Z,2.57
2019-02-07T12:04:16.142Z,2.53
2019-02-07T12:06:43.552Z,2.80
2019-02-07T12:09:29.235Z,3.17
2019-02-07T12:12:15.173Z,2.53
2019-02-07T12:14:45.481Z,2.80
2019-02-07T12:17:28.071Z,2.67
2019-02-07T12:19:55.500Z,2.93
2019-02-07T12:22:22.896Z,3.73
2019-02-07T12:25:08.611Z,3.10
2019-02-07T12:27:45.374Z,2.80
2019-02-07T12:30:12.793Z,2.70
2019-02-07T12:32:42.656Z,2.60
2019-02-07T12:35:15.846Z,2.90
2019-02-07T12:37:46.124Z,3.73
2019-02-07T12:40:22.726Z,2.57
2019-02-07T12:42:53.062Z,3.50
2019-02-07T12:45:32.298Z,2.70
2019-02-07T12:47:59.700Z,2.90
2019-02-07T12:50:45.235Z,3.20
2019-02-07T12:53:24.675Z,2.90
2019-02-07T12:56:04.262Z,3.23
2019-02-07T12:58:49.961Z,2.40
2019-02-07T13:01:17.381Z,2.63
2019-02-07T13:04:03.113Z,3.10
2019-02-07T13:06:33.048Z,2.70
2019-02-07T13:09:19.185Z,2.17
2019-02-07T13:12:04.830Z,2.43
2019-02-07T13:14:47.540Z,2.70
2019-02-07T13:17:20.516Z,4.50
2019-02-07T13:19:56.798Z,3.13
2019-02-07T13:22:24.208Z,2.63
2019-02-07T13:25:10.146Z,3.73
2019-02-07T13:27:40.481Z,2.67
2019-02-07T13:30:23.239Z,2.87
2019-02-07T13:32:53.565Z,1.97
2019-02-07T13:35:20.962Z,2.63
2019-02-07T13:37:51.065Z,2.67
2019-02-07T13:40:24.390Z,2.43
2019-02-07T13:42:54.492Z,2.80
2019-02-07T13:45:24.871Z,3.03
2019-02-07T13:48:04.219Z,2.57
2019-02-07T13:50:32.601Z,4.07
2019-02-07T13:53:02.064Z,2.67
2019-02-07T13:55:37.427Z,2.50
2019-02-07T13:58:02.925Z,2.47
2019-02-07T14:00:36.319Z,2.60
2019-02-07T14:03:03.734Z,2.73
2019-02-07T14:05:34.058Z,2.90
2019-02-07T14:08:04.035Z,2.37
2019-02-07T14:10:46.569Z,3.43
2019-02-07T14:13:13.985Z,3.40
2019-02-07T14:15:59.877Z,3.33
2019-02-07T14:18:30.064Z,3.70
2019-02-07T14:20:57.477Z,4.50
2019-02-07T14:23:43.225Z,2.90
2019-02-07T14:26:16.243Z,3.10
2019-02-07T14:28:43.672Z,4.60
2019-02-07T14:31:17.019Z,4.80
2019-02-07T14:33:44.449Z,3.30
2019-02-07T14:36:11.856Z,3.73
2019-02-07T14:38:51.454Z,3.27
2019-02-07T14:41:27.821Z,3.23
2019-02-07T14:44:04.411Z,3.80
2019-02-07T14:46:46.929Z,4.47
2019-02-07T14:49:14.341Z,2.63
2019-02-07T14:51:41.753Z,3.70
2019-02-07T14:54:09.188Z,3.93
2019-02-07T14:56:36.610Z,3.40
2019-02-07T14:59:04.043Z,3.00
2019-02-07T15:01:31.451Z,3.33
2019-02-07T15:03:58.850Z,4.17
2019-02-07T15:06:26.291Z,4.63
2019-02-07T15:08:53.702Z,3.50
2019-02-07T15:11:21.125Z,4.47
2019-02-07T15:13:48.531Z,3.50
2019-02-07T15:16:15.968Z,3.57
2019-02-07T15:18:45.997Z,3.17
2019-02-07T15:21:10.825Z,2.93
2019-02-07T15:23:38.234Z,3.90
2019-02-07T15:26:05.650Z,2.57
2019-02-07T15:28:33.055Z,3.03
2019-02-07T15:31:00.479Z,3.60
2019-02-07T15:33:27.899Z,5.10
2019-02-07T15:35:55.300Z,3.60
2019-02-07T15:38:22.736Z,3.43
2019-02-07T15:40:50.152Z,2.93
2019-02-07T15:43:17.591Z,2.50
2019-02-07T15:45:44.994Z,3.13
2019-02-07T15:48:12.465Z,2.40
2019-02-07T15:50:39.869Z,2.40
2019-02-07T15:53:07.333Z,2.03
2019-02-07T15:55:34.879Z,2.00
2019-02-07T15:58:02.302Z,4.50
2019-02-07T16:00:32.239Z,4.57
2019-02-07T16:02:59.637Z,2.80
2019-02-07T16:05:27.070Z,2.53
2019-02-07T16:07:54.490Z,2.73
2019-02-07T16:10:21.905Z,3.13
2019-02-07T16:12:49.335Z,3.57
2019-02-07T16:15:18.877Z,3.07
2019-02-07T16:17:46.312Z,3.43
2019-02-07T16:20:19.505Z,5.03
2019-02-07T16:22:46.972Z,3.73
2019-02-07T16:25:14.427Z,3.77
2019-02-07T16:27:41.832Z,2.83
2019-02-07T16:30:09.306Z,2.93
2019-02-07T16:32:36.723Z,4.87
2019-02-07T16:35:04.164Z,3.20
2019-02-07T16:37:31.560Z,3.03
2019-02-07T16:39:58.991Z,2.90
2019-02-07T16:42:26.421Z,2.70
2019-02-07T16:44:53.832Z,3.10
2019-02-07T16:47:21.256Z,2.90
2019-02-07T16:49:48.678Z,2.63
2019-02-07T16:52:16.107Z,3.10
2019-02-07T16:54:43.524Z,2.70
2019-02-07T16:57:10.944Z,3.93
2019-02-07T16:59:38.374Z,2.90
2019-02-07T17:02:05.833Z,2.50
2019-02-07T17:04:33.266Z,2.60
2019-02-07T17:07:00.694Z,2.50
2019-02-07T17:09:28.143Z,2.40
2019-02-07T17:11:55.564Z,2.00
2019-02-07T17:14:23.160Z,2.50
2019-02-07T17:16:50.597Z,2.40
2019-02-07T17:19:17.991Z,2.23
2019-02-07T17:21:45.433Z,2.80
2019-02-07T17:24:12.832Z,2.63
2019-02-07T17:26:40.268Z,2.30
2019-02-07T17:29:07.673Z,2.07
2019-02-07T17:31:36.137Z,2.73
2019-02-07T17:34:03.547Z,2.40
2019-02-07T17:36:31.049Z,2.40
2019-02-07T17:38:58.478Z,2.90
2019-02-07T17:41:25.872Z,2.53
2019-02-07T17:43:53.320Z,2.30
2019-02-07T17:46:20.714Z,1.80
2019-02-07T17:48:48.147Z,1.73
2019-02-07T17:51:22.897Z,2.70
2019-02-07T17:53:42.989Z,2.00
2019-02-07T17:56:10.518Z,2.10
2019-02-07T17:58:37.945Z,2.93
2019-02-07T18:01:05.367Z,2.13
2019-02-07T18:03:32.773Z,2.80
2019-02-07T18:06:00.351Z,2.50
2019-02-07T18:08:27.771Z,3.20
2019-02-07T18:10:55.237Z,2.50
2019-02-07T18:13:22.668Z,2.23
2019-02-07T18:15:50.064Z,2.63
2019-02-07T18:18:17.642Z,2.10
2019-02-07T18:20:45.128Z,2.27
2019-02-07T18:23:12.542Z,2.67
2019-02-07T18:25:39.984Z,2.70
2019-02-07T18:28:07.605Z,2.60
2019-02-07T18:30:35.150Z,2.03
2019-02-07T18:33:02.645Z,1.73
2019-02-07T18:35:30.073Z,3.13
2019-02-07T18:37:57.540Z,1.83
2019-02-07T18:40:27.931Z,2.10
2019-02-07T18:42:55.365Z,1.70
2019-02-07T18:45:22.809Z,1.77
2019-02-07T18:47:50.251Z,2.07
2019-02-07T18:50:17.670Z,2.27
2019-02-07T18:52:45.095Z,1.80
2019-02-07T18:55:12.559Z,2.80
2019-02-07T18:57:39.993Z,2.80
2019-02-07T19:00:07.522Z,2.97
2019-02-07T19:02:34.918Z,2.97
2019-02-07T19:05:02.359Z,3.00
2019-02-07T19:07:29.759Z,2.40
2019-02-07T19:09:57.277Z,2.37
2019-02-07T19:12:24.723Z,2.93
2019-02-07T19:14:52.175Z,2.50
2019-02-07T19:17:19.555Z,2.20
2019-02-07T19:19:46.969Z,2.27
2019-02-07T19:22:14.444Z,2.30
2019-02-07T19:24:41.877Z,2.07
2019-02-07T19:27:09.309Z,2.00
2019-02-07T19:29:36.731Z,1.93
2019-02-07T19:32:04.126Z,2.00
2019-02-07T19:34:31.584Z,2.57
2019-02-07T19:36:59.003Z,2.20
2019-02-07T19:39:26.508Z,2.33
2019-02-07T19:41:53.942Z,2.43
2019-02-07T19:44:21.440Z,2.30
2019-02-07T19:46:48.898Z,2.70
2019-02-07T19:49:16.300Z,3.00
2019-02-07T19:51:43.785Z,2.60
2019-02-07T19:54:11.399Z,4.10
2019-02-07T19:56:38.814Z,3.37
2019-02-07T19:59:06.235Z,2.80
2019-02-07T20:01:33.699Z,3.73
2019-02-07T20:04:01.139Z,3.27
2019-02-07T20:06:28.599Z,3.77
2019-02-07T20:08:56.216Z,3.73
2019-02-07T20:11:23.716Z,3.37
2019-02-07T20:13:51.120Z,3.50
2019-02-07T20:16:18.616Z,4.40
2019-02-07T20:18:46.058Z,5.20
2019-02-07T20:21:13.448Z,4.80
2019-02-07T20:23:40.874Z,4.17
2019-02-07T20:26:08.277Z,4.30
2019-02-07T20:28:35.713Z,3.43
2019-02-07T20:31:03.145Z,3.20
2019-02-07T20:33:30.560Z,3.27
2019-02-07T20:35:57.963Z,3.33
2019-02-07T20:38:25.388Z,2.90
2019-02-07T20:40:52.811Z,2.70
2019-02-07T20:43:20.256Z,3.60
2019-02-07T20:45:47.663Z,3.13
2019-02-07T20:48:15.070Z,2.80
2019-02-07T20:50:42.511Z,2.70
2019-02-07T20:53:10.018Z,3.00
2019-02-07T20:55:37.441Z,2.10
2019-02-07T20:58:04.919Z,2.40
2019-02-07T21:00:35.017Z,2.07
2019-02-07T21:03:02.439Z,2.17
2019-02-07T21:05:30.001Z,1.93
2019-02-07T21:07:57.860Z,2.50
2019-02-07T21:10:27.973Z,2.47
2019-02-07T21:12:55.393Z,1.63
2019-02-07T21:15:22.839Z,2.50
2019-02-07T21:17:50.247Z,2.40
2019-02-07T21:20:20.067Z,2.27
2019-02-07T21:22:47.494Z,2.33
2019-02-07T21:25:20.539Z,2.67
2019-02-07T21:27:48.231Z,2.97
2019-02-07T21:30:18.525Z,2.90
2019-02-07T21:32:45.951Z,2.30
2019-02-07T21:35:13.637Z,2.63
2019-02-07T21:37:41.556Z,2.57
2019-02-07T21:40:08.912Z,2.00
2019-02-07T21:42:36.397Z,2.37
2019-02-07T21:45:04.000Z,2.93
2019-02-07T21:47:31.572Z,3.00
2019-02-07T21:49:59.108Z,2.93
2019-02-07T21:52:26.564Z,2.83
2019-02-07T21:54:53.961Z,3.10
2019-02-07T21:57:21.374Z,2.90
2019-02-07T21:59:48.858Z,2.80
2019-02-07T22:02:16.263Z,3.00
2019-02-07T22:04:43.661Z,2.27
2019-02-07T22:07:11.135Z,3.43
2019-02-07T22:09:38.580Z,2.80
2019-02-07T22:12:05.969Z,2.20
2019-02-07T22:14:33.373Z,2.70
2019-02-07T22:17:00.813Z,2.73
2019-02-07T22:19:28.245Z,2.77
2019-02-07T22:21:55.650Z,3.00
2019-02-07T22:24:23.084Z,2.87
2019-02-07T22:26:50.493Z,3.00
2019-02-07T22:29:17.948Z,2.47
2019-02-07T22:31:45.359Z,3.33
2019-02-07T22:34:12.788Z,2.97
2019-02-07T22:36:40.217Z,3.37
2019-02-07T22:39:07.642Z,2.57
2019-02-07T22:41:35.059Z,2.57
2019-02-07T22:44:02.475Z,2.20
2019-02-07T22:46:29.897Z,2.30
2019-02-07T22:48:57.559Z,2.10
2019-02-07T22:51:24.986Z,2.30
2019-02-07T22:53:52.394Z,2.63
2019-02-07T22:56:19.840Z,2.30
2019-02-07T22:58:47.237Z,2.30
2019-02-07T23:01:14.704Z,2.17
2019-02-07T23:03:42.114Z,1.87
2019-02-07T23:06:09.540Z,2.33
2019-02-07T23:08:36.947Z,2.33
2019-02-07T23:11:04.376Z,2.87
2019-02-07T23:13:31.779Z,2.60
2019-02-07T23:15:59.198Z,2.27
2019-02-07T23:18:26.654Z,2.43
2019-02-07T23:20:54.064Z,2.07
2019-02-07T23:23:21.576Z,2.13
2019-02-07T23:25:48.931Z,2.77
2019-02-07T23:28:16.355Z,2.40
2019-02-07T23:30:43.761Z,2.77
2019-02-07T23:33:11.205Z,2.37
2019-02-07T23:35:38.619Z,2.30
2019-02-07T23:38:06.019Z,2.10
2019-02-07T23:40:33.441Z,2.40
2019-02-07T23:43:00.824Z,2.17
2019-02-07T23:45:28.251Z,2.43
2019-02-07T23:47:55.678Z,2.30
2019-02-07T23:50:23.116Z,2.00
2019-02-07T23:52:50.517Z,2.33
2019-02-07T23:55:17.938Z,2.17
2019-02-07T23:57:45.364Z,2.23
